ěÝzenÝ letovÚho provozu ╚eskÚ republiky
Letiste: LKTB Aktualizace: 07.04.2020 03:00:24  UTC
 METAR LKTB 07.04. 03:00 ...
METAR LKTB 070300Z 09009KT CAVOK 05/M05 Q1031 NOSIG RMK REG QNH 1026=
 TAF LKTB 06.04. 23:00 ...
TAF LKTB 062300Z 0700/0806 12008KT CAVOK      TEMPO 0708/0716 15014G24KT=